createdAt,value
2022-12-29T00:01:27.878Z,98458.34
2022-12-29T00:06:32.876Z,98461.31
2022-12-29T00:11:36.022Z,98463.50
2022-12-29T00:16:39.876Z,98465.81
2022-12-29T00:22:09.803Z,98477.09
2022-12-29T00:27:31.835Z,98445.34
2022-12-29T00:32:52.533Z,98443.53
2022-12-29T00:38:16.364Z,98445.91
2022-12-29T00:43:36.841Z,98442.78
2022-12-29T00:48:57.099Z,98426.38
2022-12-29T00:54:01.403Z,98408.09
2022-12-29T00:59:05.128Z,98411.25
2022-12-29T01:04:08.841Z,98411.31
2022-12-29T01:09:35.614Z,98414.38
2022-12-29T01:14:39.293Z,98413.94
2022-12-29T01:19:42.205Z,98416.38
2022-12-29T01:24:46.484Z,98419.25
2022-12-29T01:29:49.718Z,98408.25
2022-12-29T01:34:52.656Z,98402.00
2022-12-29T01:39:56.948Z,98391.34
2022-12-29T01:45:02.578Z,98395.19
2022-12-29T01:50:11.612Z,98413.94
2022-12-29T01:55:16.923Z,98400.72
2022-12-29T02:00:22.863Z,98400.00
2022-12-29T02:05:30.787Z,98386.38
2022-12-29T02:10:37.299Z,98369.47
2022-12-29T02:15:56.296Z,98355.38
2022-12-29T02:21:27.763Z,98350.44
2022-12-29T02:26:46.602Z,98341.56
2022-12-29T02:31:57.432Z,98327.72
2022-12-29T02:37:05.521Z,98334.13
2022-12-29T02:42:15.559Z,98347.94
2022-12-29T02:47:27.044Z,98355.03
2022-12-29T02:52:34.515Z,98341.59
2022-12-29T02:57:37.904Z,98343.53
2022-12-29T03:03:02.316Z,98345.19
2022-12-29T03:08:13.635Z,98341.00
2022-12-29T03:13:44.440Z,98347.06
2022-12-29T03:19:02.562Z,98332.59
2022-12-29T03:24:06.410Z,98334.88
2022-12-29T03:29:11.809Z,98327.94
2022-12-29T03:34:18.732Z,98319.28
2022-12-29T03:39:24.805Z,98308.13
2022-12-29T03:44:35.198Z,98306.06
2022-12-29T03:49:40.459Z,98299.22
2022-12-29T03:54:44.808Z,98303.34
2022-12-29T03:59:48.698Z,98305.63
2022-12-29T04:04:53.120Z,98294.31
2022-12-29T04:09:56.171Z,98298.44
2022-12-29T04:15:01.461Z,98290.78
2022-12-29T04:20:24.735Z,98276.88
2022-12-29T04:25:29.533Z,98269.13
2022-12-29T04:30:33.779Z,98277.66
2022-12-29T04:35:46.120Z,98280.97
2022-12-29T04:40:50.270Z,98276.75
2022-12-29T04:45:55.819Z,98276.66
2022-12-29T04:51:06.231Z,98289.06
2022-12-29T04:56:14.270Z,98288.28
2022-12-29T05:01:17.573Z,98303.56
2022-12-29T05:06:22.961Z,98309.16
2022-12-29T05:11:26.521Z,98326.56
2022-12-29T05:16:30.854Z,98327.13
2022-12-29T05:21:35.757Z,98329.19
2022-12-29T05:26:39.134Z,98322.38
2022-12-29T05:31:47.811Z,98332.16
2022-12-29T05:36:52.500Z,98329.06
2022-12-29T05:41:55.555Z,98340.13
2022-12-29T05:47:03.859Z,98345.59
2022-12-29T05:52:20.690Z,98339.09
2022-12-29T05:57:23.662Z,98334.88
2022-12-29T06:02:39.225Z,98354.03
2022-12-29T06:07:45.735Z,98357.69
2022-12-29T06:12:51.328Z,98345.25
2022-12-29T06:17:54.298Z,98366.78
2022-12-29T06:22:58.698Z,98349.00
2022-12-29T06:28:02.011Z,98341.06
2022-12-29T06:33:05.132Z,98342.31
2022-12-29T06:38:09.398Z,98328.59
2022-12-29T06:43:12.479Z,98324.06
2022-12-29T06:48:53.745Z,98315.41
2022-12-29T06:53:58.081Z,98316.53
2022-12-29T06:59:02.070Z,98316.53
2022-12-29T07:04:05.180Z,98317.69
2022-12-29T07:09:10.157Z,98315.63
2022-12-29T07:14:13.285Z,98339.34
2022-12-29T07:19:16.461Z,98341.41
2022-12-29T07:24:21.544Z,98341.06
2022-12-29T07:29:24.438Z,98352.88
2022-12-29T07:34:27.331Z,98347.63
2022-12-29T07:39:31.606Z,98325.56
2022-12-29T07:44:34.553Z,98322.25
2022-12-29T07:50:08.086Z,98337.84
2022-12-29T07:55:12.809Z,98324.50
2022-12-29T08:00:16.733Z,98332.03
2022-12-29T08:05:20.256Z,98330.53
2022-12-29T08:10:24.623Z,98349.13
2022-12-29T08:15:32.285Z,98359.38
2022-12-29T08:20:35.791Z,98359.94
2022-12-29T08:25:40.129Z,98359.84
2022-12-29T08:30:43.160Z,98349.25
2022-12-29T08:35:46.734Z,98354.81
2022-12-29T08:40:51.052Z,98357.88
2022-12-29T08:45:54.166Z,98356.63
2022-12-29T08:50:57.282Z,98359.81
2022-12-29T08:56:05.469Z,98353.19
2022-12-29T09:01:19.555Z,98355.72
2022-12-29T09:06:22.743Z,98368.38
2022-12-29T09:11:27.806Z,98352.63
2022-12-29T09:16:30.880Z,98347.72
2022-12-29T09:21:34.257Z,98349.09
2022-12-29T09:26:43.426Z,98349.22
2022-12-29T09:31:49.850Z,98354.53
2022-12-29T09:36:52.833Z,98339.59
2022-12-29T09:42:06.037Z,98347.91
2022-12-29T09:47:13.721Z,98338.13
2022-12-29T09:52:23.633Z,98334.34
2022-12-29T09:57:31.653Z,98333.31
2022-12-29T10:02:41.338Z,98342.66
2022-12-29T10:07:52.799Z,98344.25
2022-12-29T10:13:10.895Z,98348.28
2022-12-29T10:18:34.464Z,98346.34
2022-12-29T10:23:42.725Z,98358.88
2022-12-29T10:28:49.848Z,98342.31
2022-12-29T10:33:59.269Z,98347.28
2022-12-29T10:39:09.339Z,98334.09
2022-12-29T10:44:17.702Z,98328.22
2022-12-29T10:49:22.555Z,98323.56
2022-12-29T10:54:29.901Z,98306.34
2022-12-29T10:59:36.489Z,98301.91
2022-12-29T11:04:53.425Z,98315.16
2022-12-29T11:09:56.644Z,98290.66
2022-12-29T11:15:16.787Z,98286.22
2022-12-29T11:20:35.985Z,98279.72
2022-12-29T11:25:38.964Z,98290.94
2022-12-29T11:30:43.849Z,98275.88
2022-12-29T11:35:47.080Z,98287.38
2022-12-29T11:40:50.722Z,98298.25
2022-12-29T11:45:57.519Z,98292.44
2022-12-29T11:51:01.709Z,98296.38
2022-12-29T11:56:08.446Z,98295.34
2022-12-29T12:01:19.224Z,98287.88
2022-12-29T12:06:25.221Z,98284.31
2022-12-29T12:11:37.332Z,98281.69
2022-12-29T12:16:45.514Z,98267.44
2022-12-29T12:21:53.955Z,98271.09
2022-12-29T12:27:01.997Z,98270.38
2022-12-29T12:32:16.338Z,98279.53
2022-12-29T12:37:48.248Z,98269.41
2022-12-29T12:43:00.333Z,98272.88
2022-12-29T12:48:19.520Z,98267.88
2022-12-29T12:53:35.997Z,98257.16
2022-12-29T12:58:50.393Z,98255.81
2022-12-29T13:04:15.342Z,98249.13
2022-12-29T13:09:42.079Z,98247.03
2022-12-29T13:14:56.476Z,98251.06
2022-12-29T13:20:11.060Z,98262.19
2022-12-29T13:25:28.967Z,98259.56
2022-12-29T13:30:36.664Z,98265.91
2022-12-29T13:35:57.961Z,98271.97
2022-12-29T13:41:05.826Z,98275.66
2022-12-29T13:46:12.184Z,98269.94
2022-12-29T13:51:21.350Z,98279.09
2022-12-29T13:56:36.436Z,98274.13
2022-12-29T14:01:45.708Z,98277.22
2022-12-29T14:07:05.042Z,98278.25
2022-12-29T14:12:22.768Z,98256.13
2022-12-29T14:17:25.675Z,98284.25
2022-12-29T14:22:33.290Z,98279.09
2022-12-29T14:27:53.439Z,98285.16
2022-12-29T14:33:04.009Z,98279.41
2022-12-29T14:38:17.279Z,98292.66
2022-12-29T14:43:28.043Z,98296.34
2022-12-29T14:48:44.365Z,98311.78
2022-12-29T14:53:51.674Z,98321.44
2022-12-29T14:58:56.274Z,98322.63
2022-12-29T15:04:03.210Z,98313.56
2022-12-29T15:09:18.552Z,98315.16
2022-12-29T15:14:31.996Z,98335.13
2022-12-29T15:19:34.924Z,98336.81
2022-12-29T15:24:43.583Z,98335.38
2022-12-29T15:29:48.137Z,98348.53
2022-12-29T15:34:52.814Z,98350.97
2022-12-29T15:39:58.094Z,98346.28
2022-12-29T15:45:10.823Z,98363.56
2022-12-29T15:50:22.314Z,98383.75
2022-12-29T15:55:33.822Z,98388.69
2022-12-29T16:00:38.668Z,98390.06
2022-12-29T16:05:42.062Z,98392.66
2022-12-29T16:10:46.325Z,98398.38
2022-12-29T16:15:49.708Z,98406.63
2022-12-29T16:20:55.389Z,98403.47
2022-12-29T16:26:00.203Z,98403.34
2022-12-29T16:31:06.229Z,98419.34
2022-12-29T16:36:26.886Z,98419.47
2022-12-29T16:41:34.177Z,98441.28
2022-12-29T16:46:37.182Z,98436.75
2022-12-29T16:51:41.512Z,98427.03
2022-12-29T16:56:47.053Z,98449.53
2022-12-29T17:01:50.171Z,98433.66
2022-12-29T17:06:53.233Z,98440.06
2022-12-29T17:12:05.253Z,98444.28
2022-12-29T17:17:18.369Z,98441.56
2022-12-29T17:22:26.147Z,98447.28
2022-12-29T17:27:33.911Z,98452.41
2022-12-29T17:32:36.892Z,98464.16
2022-12-29T17:37:40.008Z,98468.84
2022-12-29T17:42:47.956Z,98466.97
2022-12-29T17:47:51.361Z,98468.47
2022-12-29T17:53:00.806Z,98479.75
2022-12-29T17:58:17.576Z,98482.63
2022-12-29T18:03:25.136Z,98475.88
2022-12-29T18:08:29.480Z,98491.44
2022-12-29T18:13:43.937Z,98480.97
2022-12-29T18:18:49.122Z,98474.47
2022-12-29T18:23:52.116Z,98485.97
2022-12-29T18:28:56.921Z,98486.06
2022-12-29T18:34:02.198Z,98485.72
2022-12-29T18:39:05.183Z,98493.00
2022-12-29T18:44:13.859Z,98495.38
2022-12-29T18:49:16.835Z,98484.41
2022-12-29T18:54:28.220Z,98478.34
2022-12-29T18:59:32.485Z,98466.16
2022-12-29T19:04:35.590Z,98469.53
2022-12-29T19:09:38.692Z,98480.84
2022-12-29T19:14:43.063Z,98469.28
2022-12-29T19:19:45.992Z,98470.78
2022-12-29T19:24:48.894Z,98456.00
2022-12-29T19:29:53.189Z,98478.22
2022-12-29T19:34:56.110Z,98469.66
2022-12-29T19:39:58.970Z,98478.41
2022-12-29T19:45:03.591Z,98478.19
2022-12-29T19:50:09.559Z,98477.69
2022-12-29T19:55:15.379Z,98472.63
2022-12-29T20:00:19.848Z,98468.16
2022-12-29T20:05:22.742Z,98456.34
2022-12-29T20:10:25.659Z,98453.56
2022-12-29T20:15:29.896Z,98458.91
2022-12-29T20:20:34.571Z,98471.41
2022-12-29T20:25:46.423Z,98477.91
2022-12-29T20:31:01.499Z,98466.81
2022-12-29T20:36:08.693Z,98472.66
2022-12-29T20:41:11.819Z,98476.44
2022-12-29T20:46:20.754Z,98481.75
2022-12-29T20:51:24.916Z,98479.34
2022-12-29T20:56:30.204Z,98495.19
2022-12-29T21:01:35.267Z,98493.53
2022-12-29T21:06:38.309Z,98492.59
2022-12-29T21:11:41.203Z,98506.28
2022-12-29T21:16:45.567Z,98503.94
2022-12-29T21:21:48.426Z,98506.38
2022-12-29T21:26:51.435Z,98526.56
2022-12-29T21:31:56.350Z,98531.81
2022-12-29T21:37:00.608Z,98529.47
2022-12-29T21:42:03.515Z,98535.25
2022-12-29T21:47:07.901Z,98544.97
2022-12-29T21:52:10.834Z,98554.13
2022-12-29T21:57:35.745Z,98558.22
2022-12-29T22:02:57.346Z,98555.03
2022-12-29T22:08:18.132Z,98564.94
2022-12-29T22:13:21.048Z,98572.94
2022-12-29T22:18:25.272Z,98578.25
2022-12-29T22:23:28.123Z,98588.84
2022-12-29T22:28:31.045Z,98586.28
2022-12-29T22:33:35.340Z,98593.66
2022-12-29T22:38:38.208Z,98589.84
2022-12-29T22:43:41.453Z,98601.56
2022-12-29T22:48:45.731Z,98588.91
2022-12-29T22:53:49.892Z,98587.75
2022-12-29T22:58:52.883Z,98577.50
2022-12-29T23:04:10.290Z,98595.59
2022-12-29T23:09:22.984Z,98607.19
2022-12-29T23:14:26.119Z,98616.28
2022-12-29T23:19:30.356Z,98610.06
2022-12-29T23:24:33.253Z,98599.59
2022-12-29T23:29:36.169Z,98607.75
2022-12-29T23:34:40.446Z,98600.34
2022-12-29T23:39:43.378Z,98591.16
2022-12-29T23:44:46.305Z,98611.44
2022-12-29T23:49:50.612Z,98625.94
2022-12-29T23:54:53.547Z,98633.34
2022-12-29T23:59:56.428Z,98638.41
